sensor_id;sensor_type;location;lat;lon;timestamp;temperature;humidity
30572;DHT22;17348;50.948;10.696;2022-09-01T00:01:35;16.60;99.90
30572;DHT22;17348;50.948;10.696;2022-09-01T00:04:39;16.50;99.90
30572;DHT22;17348;50.948;10.696;2022-09-01T00:07:42;16.50;99.90
30572;DHT22;17348;50.948;10.696;2022-09-01T00:10:45;16.40;99.90
30572;DHT22;17348;50.948;10.696;2022-09-01T00:13:48;16.30;99.90
30572;DHT22;17348;50.948;10.696;2022-09-01T00:16:50;16.20;99.90
30572;DHT22;17348;50.948;10.696;2022-09-01T00:19:54;16.10;99.90
30572;DHT22;17348;50.948;10.696;2022-09-01T00:22:58;16.10;99.90
30572;DHT22;17348;50.948;10.696;2022-09-01T00:26:00;16.00;99.90
30572;DHT22;17348;50.948;10.696;2022-09-01T00:29:03;15.90;99.90
30572;DHT22;17348;50.948;10.696;2022-09-01T00:32:05;15.80;99.90
30572;DHT22;17348;50.948;10.696;2022-09-01T00:35:08;15.80;99.90
30572;DHT22;17348;50.948;10.696;2022-09-01T00:38:12;15.70;99.90
30572;DHT22;17348;50.948;10.696;2022-09-01T00:41:15;15.60;99.90
30572;DHT22;17348;50.948;10.696;2022-09-01T00:44:20;15.50;99.90
30572;DHT22;17348;50.948;10.696;2022-09-01T00:47:26;15.40;99.90
30572;DHT22;17348;50.948;10.696;2022-09-01T00:50:28;15.40;99.90
30572;DHT22;17348;50.948;10.696;2022-09-01T00:53:33;15.30;99.90
30572;DHT22;17348;50.948;10.696;2022-09-01T00:56:38;15.30;99.90
30572;DHT22;17348;50.948;10.696;2022-09-01T00:59:46;15.20;99.90
30572;DHT22;17348;50.948;10.696;2022-09-01T01:02:51;15.10;99.90
30572;DHT22;17348;50.948;10.696;2022-09-01T01:05:57;15.10;99.90
30572;DHT22;17348;50.948;10.696;2022-09-01T01:09:03;15.00;99.90
30572;DHT22;17348;50.948;10.696;2022-09-01T01:12:05;15.00;99.90
30572;DHT22;17348;50.948;10.696;2022-09-01T01:15:13;14.90;99.90
30572;DHT22;17348;50.948;10.696;2022-09-01T01:18:17;14.90;99.90
30572;DHT22;17348;50.948;10.696;2022-09-01T01:21:24;14.80;99.90
30572;DHT22;17348;50.948;10.696;2022-09-01T01:24:46;14.80;99.90
30572;DHT22;17348;50.948;10.696;2022-09-01T01:27:49;14.70;99.90
30572;DHT22;17348;50.948;10.696;2022-09-01T01:30:53;14.60;99.90
30572;DHT22;17348;50.948;10.696;2022-09-01T01:33:56;14.60;99.90
30572;DHT22;17348;50.948;10.696;2022-09-01T01:36:59;14.50;99.90
30572;DHT22;17348;50.948;10.696;2022-09-01T01:40:04;14.40;99.90
30572;DHT22;17348;50.948;10.696;2022-09-01T01:43:08;14.30;99.90
30572;DHT22;17348;50.948;10.696;2022-09-01T01:46:12;14.30;99.90
30572;DHT22;17348;50.948;10.696;2022-09-01T01:49:15;14.20;99.90
30572;DHT22;17348;50.948;10.696;2022-09-01T01:52:19;14.20;99.90
30572;DHT22;17348;50.948;10.696;2022-09-01T01:55:24;14.10;99.90
30572;DHT22;17348;50.948;10.696;2022-09-01T01:58:28;14.10;99.90
30572;DHT22;17348;50.948;10.696;2022-09-01T02:01:30;14.10;99.90
30572;DHT22;17348;50.948;10.696;2022-09-01T02:04:33;14.00;99.90
30572;DHT22;17348;50.948;10.696;2022-09-01T02:07:35;14.00;99.90
30572;DHT22;17348;50.948;10.696;2022-09-01T02:10:41;13.90;99.90
30572;DHT22;17348;50.948;10.696;2022-09-01T02:13:44;13.90;99.90
30572;DHT22;17348;50.948;10.696;2022-09-01T02:16:47;13.90;99.90
30572;DHT22;17348;50.948;10.696;2022-09-01T02:19:49;13.90;99.90
30572;DHT22;17348;50.948;10.696;2022-09-01T02:22:56;13.80;99.90
30572;DHT22;17348;50.948;10.696;2022-09-01T02:25:59;13.70;99.90
30572;DHT22;17348;50.948;10.696;2022-09-01T02:29:05;13.60;99.90
30572;DHT22;17348;50.948;10.696;2022-09-01T02:32:09;13.50;99.90
30572;DHT22;17348;50.948;10.696;2022-09-01T02:35:11;13.50;99.90
30572;DHT22;17348;50.948;10.696;2022-09-01T02:38:14;13.50;99.90
30572;DHT22;17348;50.948;10.696;2022-09-01T02:41:19;13.40;99.90
30572;DHT22;17348;50.948;10.696;2022-09-01T02:44:24;13.40;99.90
30572;DHT22;17348;50.948;10.696;2022-09-01T02:47:27;13.30;99.90
30572;DHT22;17348;50.948;10.696;2022-09-01T02:50:30;13.20;99.90
30572;DHT22;17348;50.948;10.696;2022-09-01T02:53:34;13.20;99.90
30572;DHT22;17348;50.948;10.696;2022-09-01T02:56:37;13.10;99.90
30572;DHT22;17348;50.948;10.696;2022-09-01T02:59:40;13.00;99.90
30572;DHT22;17348;50.948;10.696;2022-09-01T03:02:42;13.00;99.90
30572;DHT22;17348;50.948;10.696;2022-09-01T03:05:45;12.90;99.90
30572;DHT22;17348;50.948;10.696;2022-09-01T03:08:47;12.80;99.90
30572;DHT22;17348;50.948;10.696;2022-09-01T03:11:52;12.80;99.90
30572;DHT22;17348;50.948;10.696;2022-09-01T03:14:55;12.70;99.90
30572;DHT22;17348;50.948;10.696;2022-09-01T03:17:57;12.70;99.90
30572;DHT22;17348;50.948;10.696;2022-09-01T03:21:00;12.70;99.90
30572;DHT22;17348;50.948;10.696;2022-09-01T03:24:03;12.60;99.90
30572;DHT22;17348;50.948;10.696;2022-09-01T03:27:07;12.60;99.90
30572;DHT22;17348;50.948;10.696;2022-09-01T03:30:12;12.60;99.90
30572;DHT22;17348;50.948;10.696;2022-09-01T03:33:15;12.50;99.90
30572;DHT22;17348;50.948;10.696;2022-09-01T03:36:17;12.50;99.90
30572;DHT22;17348;50.948;10.696;2022-09-01T03:39:20;12.40;99.90
30572;DHT22;17348;50.948;10.696;2022-09-01T03:42:23;12.40;99.90
30572;DHT22;17348;50.948;10.696;2022-09-01T03:45:28;12.30;99.90
30572;DHT22;17348;50.948;10.696;2022-09-01T03:48:35;12.30;99.90
30572;DHT22;17348;50.948;10.696;2022-09-01T03:51:39;12.30;99.90
30572;DHT22;17348;50.948;10.696;2022-09-01T03:54:43;12.20;99.90
30572;DHT22;17348;50.948;10.696;2022-09-01T03:57:47;12.20;99.90
30572;DHT22;17348;50.948;10.696;2022-09-01T04:00:52;12.20;99.90
30572;DHT22;17348;50.948;10.696;2022-09-01T04:03:55;12.20;99.90
30572;DHT22;17348;50.948;10.696;2022-09-01T04:06:58;12.10;99.90
30572;DHT22;17348;50.948;10.696;2022-09-01T04:10:01;12.10;99.90
30572;DHT22;17348;50.948;10.696;2022-09-01T04:13:04;12.10;99.90
30572;DHT22;17348;50.948;10.696;2022-09-01T04:16:19;12.00;99.90
30572;DHT22;17348;50.948;10.696;2022-09-01T04:19:39;12.00;99.90
30572;DHT22;17348;50.948;10.696;2022-09-01T04:22:43;12.00;99.90
30572;DHT22;17348;50.948;10.696;2022-09-01T04:25:47;12.00;99.90
30572;DHT22;17348;50.948;10.696;2022-09-01T04:28:52;11.90;99.90
30572;DHT22;17348;50.948;10.696;2022-09-01T04:31:57;11.90;99.90
30572;DHT22;17348;50.948;10.696;2022-09-01T04:35:02;11.80;99.90
30572;DHT22;17348;50.948;10.696;2022-09-01T04:38:04;11.80;99.90
30572;DHT22;17348;50.948;10.696;2022-09-01T04:41:08;11.80;99.90
30572;DHT22;17348;50.948;10.696;2022-09-01T04:44:19;11.80;99.90
30572;DHT22;17348;50.948;10.696;2022-09-01T04:47:22;11.80;99.90
30572;DHT22;17348;50.948;10.696;2022-09-01T04:50:30;11.80;99.90
30572;DHT22;17348;50.948;10.696;2022-09-01T04:53:32;11.80;99.90
30572;DHT22;17348;50.948;10.696;2022-09-01T04:56:35;11.80;99.90
30572;DHT22;17348;50.948;10.696;2022-09-01T04:59:38;11.80;99.90
30572;DHT22;17348;50.948;10.696;2022-09-01T05:02:41;11.90;99.90
30572;DHT22;17348;50.948;10.696;2022-09-01T05:05:46;11.90;99.90
30572;DHT22;17348;50.948;10.696;2022-09-01T05:08:49;11.90;99.90
30572;DHT22;17348;50.948;10.696;2022-09-01T05:11:52;11.90;99.90
30572;DHT22;17348;50.948;10.696;2022-09-01T05:14:56;11.90;99.90
30572;DHT22;17348;50.948;10.696;2022-09-01T05:17:58;11.90;99.90
30572;DHT22;17348;50.948;10.696;2022-09-01T05:21:09;11.90;99.90
30572;DHT22;17348;50.948;10.696;2022-09-01T05:24:14;11.90;99.90
30572;DHT22;17348;50.948;10.696;2022-09-01T05:27:18;11.90;99.90
30572;DHT22;17348;50.948;10.696;2022-09-01T05:30:22;11.90;99.90
30572;DHT22;17348;50.948;10.696;2022-09-01T05:33:28;11.90;99.90
30572;DHT22;17348;50.948;10.696;2022-09-01T05:36:30;12.00;99.90
30572;DHT22;17348;50.948;10.696;2022-09-01T05:39:35;12.10;99.90
30572;DHT22;17348;50.948;10.696;2022-09-01T05:42:38;12.20;99.90
30572;DHT22;17348;50.948;10.696;2022-09-01T05:45:42;12.30;99.90
30572;DHT22;17348;50.948;10.696;2022-09-01T05:48:44;12.40;99.90
30572;DHT22;17348;50.948;10.696;2022-09-01T05:51:50;12.50;99.90
30572;DHT22;17348;50.948;10.696;2022-09-01T05:54:58;12.60;99.90
30572;DHT22;17348;50.948;10.696;2022-09-01T05:58:01;12.70;99.90
30572;DHT22;17348;50.948;10.696;2022-09-01T06:01:06;12.80;99.90
30572;DHT22;17348;50.948;10.696;2022-09-01T06:04:09;12.90;99.90
30572;DHT22;17348;50.948;10.696;2022-09-01T06:07:12;13.00;99.90
30572;DHT22;17348;50.948;10.696;2022-09-01T06:10:15;13.20;99.90
30572;DHT22;17348;50.948;10.696;2022-09-01T06:13:18;13.20;99.90
30572;DHT22;17348;50.948;10.696;2022-09-01T06:16:23;13.40;99.90
30572;DHT22;17348;50.948;10.696;2022-09-01T06:19:25;13.50;99.90
30572;DHT22;17348;50.948;10.696;2022-09-01T06:22:28;13.70;99.90
30572;DHT22;17348;50.948;10.696;2022-09-01T06:25:31;13.90;99.90
30572;DHT22;17348;50.948;10.696;2022-09-01T06:28:33;14.10;99.90
30572;DHT22;17348;50.948;10.696;2022-09-01T06:31:37;14.30;99.90
30572;DHT22;17348;50.948;10.696;2022-09-01T06:34:41;14.50;99.90
30572;DHT22;17348;50.948;10.696;2022-09-01T06:37:45;14.70;99.90
30572;DHT22;17348;50.948;10.696;2022-09-01T06:40:48;14.70;99.90
30572;DHT22;17348;50.948;10.696;2022-09-01T06:43:52;14.80;99.90
30572;DHT22;17348;50.948;10.696;2022-09-01T06:46:56;14.90;99.90
30572;DHT22;17348;50.948;10.696;2022-09-01T06:49:59;15.00;99.90
30572;DHT22;17348;50.948;10.696;2022-09-01T06:53:02;15.10;99.90
30572;DHT22;17348;50.948;10.696;2022-09-01T06:56:09;15.20;99.90
30572;DHT22;17348;50.948;10.696;2022-09-01T06:59:13;15.20;99.90
30572;DHT22;17348;50.948;10.696;2022-09-01T07:02:16;15.30;99.90
30572;DHT22;17348;50.948;10.696;2022-09-01T07:05:20;15.50;99.90
30572;DHT22;17348;50.948;10.696;2022-09-01T07:08:22;15.60;99.90
30572;DHT22;17348;50.948;10.696;2022-09-01T07:11:26;15.60;99.90
30572;DHT22;17348;50.948;10.696;2022-09-01T07:14:29;15.70;99.90
30572;DHT22;17348;50.948;10.696;2022-09-01T07:17:33;15.70;99.90
30572;DHT22;17348;50.948;10.696;2022-09-01T07:20:35;15.70;99.90
30572;DHT22;17348;50.948;10.696;2022-09-01T07:23:39;15.90;99.90
30572;DHT22;17348;50.948;10.696;2022-09-01T07:26:43;15.90;99.90
30572;DHT22;17348;50.948;10.696;2022-09-01T07:29:50;16.10;99.90
30572;DHT22;17348;50.948;10.696;2022-09-01T07:32:56;16.10;99.90
30572;DHT22;17348;50.948;10.696;2022-09-01T07:35:58;16.10;99.90
30572;DHT22;17348;50.948;10.696;2022-09-01T07:39:02;16.10;99.90
30572;DHT22;17348;50.948;10.696;2022-09-01T07:42:05;16.30;99.90
30572;DHT22;17348;50.948;10.696;2022-09-01T07:45:12;16.30;99.90
30572;DHT22;17348;50.948;10.696;2022-09-01T07:48:18;16.30;99.90
30572;DHT22;17348;50.948;10.696;2022-09-01T07:51:23;16.60;99.90
30572;DHT22;17348;50.948;10.696;2022-09-01T07:54:26;17.70;99.90
30572;DHT22;17348;50.948;10.696;2022-09-01T07:57:30;17.50;99.90
30572;DHT22;17348;50.948;10.696;2022-09-01T08:00:32;17.30;99.90
30572;DHT22;17348;50.948;10.696;2022-09-01T08:03:37;17.20;99.90
30572;DHT22;17348;50.948;10.696;2022-09-01T08:06:40;17.00;99.90
30572;DHT22;17348;50.948;10.696;2022-09-01T08:09:42;17.00;99.90
30572;DHT22;17348;50.948;10.696;2022-09-01T08:12:44;17.00;99.90
30572;DHT22;17348;50.948;10.696;2022-09-01T08:15:46;17.10;99.90
30572;DHT22;17348;50.948;10.696;2022-09-01T08:18:50;17.20;99.90
30572;DHT22;17348;50.948;10.696;2022-09-01T08:21:52;17.20;99.90
30572;DHT22;17348;50.948;10.696;2022-09-01T08:24:55;17.50;99.90
30572;DHT22;17348;50.948;10.696;2022-09-01T08:27:57;17.70;99.90
30572;DHT22;17348;50.948;10.696;2022-09-01T08:31:04;17.70;99.90
30572;DHT22;17348;50.948;10.696;2022-09-01T08:34:07;17.70;99.90
30572;DHT22;17348;50.948;10.696;2022-09-01T08:37:12;17.80;99.90
30572;DHT22;17348;50.948;10.696;2022-09-01T08:40:18;17.80;99.90
30572;DHT22;17348;50.948;10.696;2022-09-01T08:43:31;17.90;99.90
30572;DHT22;17348;50.948;10.696;2022-09-01T08:46:38;17.90;99.90
30572;DHT22;17348;50.948;10.696;2022-09-01T08:49:44;17.90;99.90
30572;DHT22;17348;50.948;10.696;2022-09-01T08:52:53;17.90;99.90
30572;DHT22;17348;50.948;10.696;2022-09-01T08:55:59;17.90;99.90
30572;DHT22;17348;50.948;10.696;2022-09-01T08:59:02;18.00;99.90
30572;DHT22;17348;50.948;10.696;2022-09-01T09:02:14;18.00;99.90
30572;DHT22;17348;50.948;10.696;2022-09-01T09:05:29;18.10;99.90
30572;DHT22;17348;50.948;10.696;2022-09-01T09:08:50;18.10;99.90
30572;DHT22;17348;50.948;10.696;2022-09-01T09:12:11;18.30;99.90
30572;DHT22;17348;50.948;10.696;2022-09-01T09:15:21;18.40;99.90
30572;DHT22;17348;50.948;10.696;2022-09-01T09:18:32;18.50;99.90
30572;DHT22;17348;50.948;10.696;2022-09-01T09:21:40;18.60;99.90
30572;DHT22;17348;50.948;10.696;2022-09-01T09:24:45;18.70;99.90
30572;DHT22;17348;50.948;10.696;2022-09-01T09:27:50;18.90;99.90
30572;DHT22;17348;50.948;10.696;2022-09-01T09:34:31;19.20;99.90
30572;DHT22;17348;50.948;10.696;2022-09-01T09:37:35;19.30;99.90
30572;DHT22;17348;50.948;10.696;2022-09-01T09:40:37;19.60;99.90
30572;DHT22;17348;50.948;10.696;2022-09-01T09:43:42;19.80;99.90
30572;DHT22;17348;50.948;10.696;2022-09-01T09:46:46;20.00;99.90
30572;DHT22;17348;50.948;10.696;2022-09-01T09:50:10;20.20;99.90
30572;DHT22;17348;50.948;10.696;2022-09-01T09:53:17;20.50;99.90
30572;DHT22;17348;50.948;10.696;2022-09-01T09:56:29;20.60;99.90
30572;DHT22;17348;50.948;10.696;2022-09-01T09:59:36;20.80;99.90
30572;DHT22;17348;50.948;10.696;2022-09-01T10:02:41;21.00;99.90
30572;DHT22;17348;50.948;10.696;2022-09-01T10:05:46;20.90;99.90
30572;DHT22;17348;50.948;10.696;2022-09-01T10:08:52;21.10;99.90
30572;DHT22;17348;50.948;10.696;2022-09-01T10:11:56;21.40;99.90
30572;DHT22;17348;50.948;10.696;2022-09-01T10:15:03;21.60;99.90
30572;DHT22;17348;50.948;10.696;2022-09-01T10:18:07;21.70;99.90
30572;DHT22;17348;50.948;10.696;2022-09-01T10:21:16;21.90;99.90
30572;DHT22;17348;50.948;10.696;2022-09-01T10:24:28;22.00;99.90
30572;DHT22;17348;50.948;10.696;2022-09-01T10:27:34;22.00;99.90
30572;DHT22;17348;50.948;10.696;2022-09-01T10:30:40;22.00;99.90
30572;DHT22;17348;50.948;10.696;2022-09-01T10:33:43;22.00;99.90
30572;DHT22;17348;50.948;10.696;2022-09-01T10:36:46;22.00;99.90
30572;DHT22;17348;50.948;10.696;2022-09-01T10:40:13;22.00;99.90
30572;DHT22;17348;50.948;10.696;2022-09-01T10:43:26;22.00;99.90
30572;DHT22;17348;50.948;10.696;2022-09-01T10:46:45;21.90;99.90
30572;DHT22;17348;50.948;10.696;2022-09-01T10:50:03;21.80;99.90
30572;DHT22;17348;50.948;10.696;2022-09-01T10:53:06;21.80;99.90
30572;DHT22;17348;50.948;10.696;2022-09-01T10:56:14;21.60;99.90
30572;DHT22;17348;50.948;10.696;2022-09-01T10:59:24;21.60;99.90
30572;DHT22;17348;50.948;10.696;2022-09-01T11:02:27;21.70;99.90
30572;DHT22;17348;50.948;10.696;2022-09-01T11:06:00;22.00;99.90
30572;DHT22;17348;50.948;10.696;2022-09-01T11:09:04;22.10;99.90
30572;DHT22;17348;50.948;10.696;2022-09-01T11:12:30;22.10;99.90
30572;DHT22;17348;50.948;10.696;2022-09-01T11:15:39;22.00;99.90
30572;DHT22;17348;50.948;10.696;2022-09-01T11:18:42;22.10;99.90
30572;DHT22;17348;50.948;10.696;2022-09-01T11:21:46;22.30;99.90
30572;DHT22;17348;50.948;10.696;2022-09-01T11:28:39;22.20;99.50
30572;DHT22;17348;50.948;10.696;2022-09-01T11:31:46;22.10;99.70
30572;DHT22;17348;50.948;10.696;2022-09-01T11:34:48;22.20;99.80
30572;DHT22;17348;50.948;10.696;2022-09-01T11:37:55;22.30;99.80
30572;DHT22;17348;50.948;10.696;2022-09-01T11:40:58;22.20;98.70
30572;DHT22;17348;50.948;10.696;2022-09-01T11:44:06;22.10;98.80
30572;DHT22;17348;50.948;10.696;2022-09-01T11:47:17;22.20;99.30
30572;DHT22;17348;50.948;10.696;2022-09-01T11:50:22;22.40;99.20
30572;DHT22;17348;50.948;10.696;2022-09-01T11:53:27;22.40;98.50
30572;DHT22;17348;50.948;10.696;2022-09-01T11:56:30;22.40;98.70
30572;DHT22;17348;50.948;10.696;2022-09-01T11:59:34;22.30;98.40
30572;DHT22;17348;50.948;10.696;2022-09-01T12:02:42;22.30;98.40
30572;DHT22;17348;50.948;10.696;2022-09-01T12:05:46;22.10;98.20
30572;DHT22;17348;50.948;10.696;2022-09-01T12:08:54;22.00;98.00
30572;DHT22;17348;50.948;10.696;2022-09-01T12:11:57;22.00;98.90
30572;DHT22;17348;50.948;10.696;2022-09-01T12:15:03;21.90;99.20
30572;DHT22;17348;50.948;10.696;2022-09-01T12:18:13;21.80;99.20
30572;DHT22;17348;50.948;10.696;2022-09-01T12:21:21;21.80;99.10
30572;DHT22;17348;50.948;10.696;2022-09-01T12:24:25;21.70;99.10
30572;DHT22;17348;50.948;10.696;2022-09-01T12:27:27;21.80;98.80
30572;DHT22;17348;50.948;10.696;2022-09-01T12:30:31;21.70;98.10
30572;DHT22;17348;50.948;10.696;2022-09-01T12:33:35;21.70;97.90
30572;DHT22;17348;50.948;10.696;2022-09-01T12:36:37;21.80;97.80
30572;DHT22;17348;50.948;10.696;2022-09-01T12:39:43;21.90;97.80
30572;DHT22;17348;50.948;10.696;2022-09-01T12:42:50;22.10;97.90
30572;DHT22;17348;50.948;10.696;2022-09-01T12:45:52;22.00;97.60
30572;DHT22;17348;50.948;10.696;2022-09-01T12:49:17;22.00;97.40
30572;DHT22;17348;50.948;10.696;2022-09-01T12:52:23;21.90;97.50
30572;DHT22;17348;50.948;10.696;2022-09-01T12:55:30;21.80;96.80
30572;DHT22;17348;50.948;10.696;2022-09-01T12:58:33;21.80;96.60
30572;DHT22;17348;50.948;10.696;2022-09-01T13:01:36;21.80;96.30
30572;DHT22;17348;50.948;10.696;2022-09-01T13:04:39;21.80;96.80
30572;DHT22;17348;50.948;10.696;2022-09-01T13:07:42;21.90;96.80
30572;DHT22;17348;50.948;10.696;2022-09-01T13:10:47;21.90;97.10
30572;DHT22;17348;50.948;10.696;2022-09-01T13:13:50;22.00;96.60
30572;DHT22;17348;50.948;10.696;2022-09-01T13:16:52;22.00;96.40
30572;DHT22;17348;50.948;10.696;2022-09-01T13:19:54;21.90;95.90
30572;DHT22;17348;50.948;10.696;2022-09-01T13:22:57;21.80;95.70
30572;DHT22;17348;50.948;10.696;2022-09-01T13:26:00;21.70;96.50
30572;DHT22;17348;50.948;10.696;2022-09-01T13:29:03;21.80;96.60
30572;DHT22;17348;50.948;10.696;2022-09-01T13:32:05;21.80;96.40
30572;DHT22;17348;50.948;10.696;2022-09-01T13:35:09;21.70;96.30
30572;DHT22;17348;50.948;10.696;2022-09-01T13:38:11;21.60;96.30
30572;DHT22;17348;50.948;10.696;2022-09-01T13:41:17;21.50;96.50
30572;DHT22;17348;50.948;10.696;2022-09-01T13:44:19;21.50;96.50
30572;DHT22;17348;50.948;10.696;2022-09-01T13:47:22;21.50;96.50
30572;DHT22;17348;50.948;10.696;2022-09-01T13:50:25;21.50;96.50
30572;DHT22;17348;50.948;10.696;2022-09-01T13:53:28;21.50;96.60
30572;DHT22;17348;50.948;10.696;2022-09-01T13:56:31;21.60;96.70
30572;DHT22;17348;50.948;10.696;2022-09-01T13:59:35;21.70;96.80
30572;DHT22;17348;50.948;10.696;2022-09-01T14:02:38;21.90;96.40
30572;DHT22;17348;50.948;10.696;2022-09-01T14:05:42;21.80;96.50
30572;DHT22;17348;50.948;10.696;2022-09-01T14:08:45;21.80;96.60
30572;DHT22;17348;50.948;10.696;2022-09-01T14:11:51;21.80;96.40
30572;DHT22;17348;50.948;10.696;2022-09-01T14:14:54;21.70;96.10
30572;DHT22;17348;50.948;10.696;2022-09-01T14:17:57;21.80;95.80
30572;DHT22;17348;50.948;10.696;2022-09-01T14:21:00;22.00;95.80
30572;DHT22;17348;50.948;10.696;2022-09-01T14:24:03;22.10;95.30
30572;DHT22;17348;50.948;10.696;2022-09-01T14:27:06;22.00;94.90
30572;DHT22;17348;50.948;10.696;2022-09-01T14:30:12;22.10;95.40
30572;DHT22;17348;50.948;10.696;2022-09-01T14:33:15;22.10;94.80
30572;DHT22;17348;50.948;10.696;2022-09-01T14:36:19;22.30;94.60
30572;DHT22;17348;50.948;10.696;2022-09-01T14:39:22;22.40;94.10
30572;DHT22;17348;50.948;10.696;2022-09-01T14:42:26;22.40;93.80
30572;DHT22;17348;50.948;10.696;2022-09-01T14:45:29;22.60;93.80
30572;DHT22;17348;50.948;10.696;2022-09-01T14:48:32;22.70;93.30
30572;DHT22;17348;50.948;10.696;2022-09-01T14:51:35;22.90;93.00
30572;DHT22;17348;50.948;10.696;2022-09-01T14:54:40;23.20;92.40
30572;DHT22;17348;50.948;10.696;2022-09-01T14:57:44;23.40;92.50
30572;DHT22;17348;50.948;10.696;2022-09-01T15:00:47;23.60;91.60
30572;DHT22;17348;50.948;10.696;2022-09-01T15:03:50;23.70;91.10
30572;DHT22;17348;50.948;10.696;2022-09-01T15:06:52;23.80;90.00
30572;DHT22;17348;50.948;10.696;2022-09-01T15:09:54;23.80;89.80
30572;DHT22;17348;50.948;10.696;2022-09-01T15:13:00;23.70;90.20
30572;DHT22;17348;50.948;10.696;2022-09-01T15:16:03;23.60;89.80
30572;DHT22;17348;50.948;10.696;2022-09-01T15:19:06;23.50;89.40
30572;DHT22;17348;50.948;10.696;2022-09-01T15:22:09;23.30;89.60
30572;DHT22;17348;50.948;10.696;2022-09-01T15:25:13;23.10;88.90
30572;DHT22;17348;50.948;10.696;2022-09-01T15:28:17;22.90;88.30
30572;DHT22;17348;50.948;10.696;2022-09-01T15:31:21;22.80;89.00
30572;DHT22;17348;50.948;10.696;2022-09-01T15:34:39;22.60;90.60
30572;DHT22;17348;50.948;10.696;2022-09-01T15:37:41;22.40;91.70
30572;DHT22;17348;50.948;10.696;2022-09-01T15:40:45;22.20;91.90
30572;DHT22;17348;50.948;10.696;2022-09-01T15:43:50;22.20;91.80
30572;DHT22;17348;50.948;10.696;2022-09-01T15:46:52;22.20;91.40
30572;DHT22;17348;50.948;10.696;2022-09-01T15:49:55;22.20;91.20
30572;DHT22;17348;50.948;10.696;2022-09-01T15:52:59;22.20;90.90
30572;DHT22;17348;50.948;10.696;2022-09-01T15:56:02;22.20;90.90
30572;DHT22;17348;50.948;10.696;2022-09-01T15:59:06;22.10;90.80
30572;DHT22;17348;50.948;10.696;2022-09-01T16:02:08;22.10;90.80
30572;DHT22;17348;50.948;10.696;2022-09-01T16:05:22;22.10;90.90
30572;DHT22;17348;50.948;10.696;2022-09-01T16:08:26;22.10;90.70
30572;DHT22;17348;50.948;10.696;2022-09-01T16:11:28;22.10;90.80
30572;DHT22;17348;50.948;10.696;2022-09-01T16:14:32;22.00;90.80
30572;DHT22;17348;50.948;10.696;2022-09-01T16:17:45;22.10;91.00
30572;DHT22;17348;50.948;10.696;2022-09-01T16:20:57;22.10;91.20
30572;DHT22;17348;50.948;10.696;2022-09-01T16:24:04;22.10;91.20
30572;DHT22;17348;50.948;10.696;2022-09-01T16:27:09;22.00;90.90
30572;DHT22;17348;50.948;10.696;2022-09-01T16:30:18;22.00;90.60
30572;DHT22;17348;50.948;10.696;2022-09-01T16:33:21;21.90;90.90
30572;DHT22;17348;50.948;10.696;2022-09-01T16:36:31;22.00;90.80
30572;DHT22;17348;50.948;10.696;2022-09-01T16:39:41;22.00;90.80
30572;DHT22;17348;50.948;10.696;2022-09-01T16:42:52;21.90;90.70
30572;DHT22;17348;50.948;10.696;2022-09-01T16:46:05;21.90;90.50
30572;DHT22;17348;50.948;10.696;2022-09-01T16:49:13;21.80;90.50
30572;DHT22;17348;50.948;10.696;2022-09-01T16:52:21;21.80;90.70
30572;DHT22;17348;50.948;10.696;2022-09-01T16:55:31;21.80;90.40
30572;DHT22;17348;50.948;10.696;2022-09-01T16:58:43;21.70;90.20
30572;DHT22;17348;50.948;10.696;2022-09-01T17:01:55;21.70;90.50
30572;DHT22;17348;50.948;10.696;2022-09-01T17:05:02;21.70;90.60
30572;DHT22;17348;50.948;10.696;2022-09-01T17:08:13;21.60;90.00
30572;DHT22;17348;50.948;10.696;2022-09-01T17:11:24;21.50;90.00
30572;DHT22;17348;50.948;10.696;2022-09-01T17:14:33;21.40;89.80
30572;DHT22;17348;50.948;10.696;2022-09-01T17:17:45;21.40;90.00
30572;DHT22;17348;50.948;10.696;2022-09-01T17:20:53;21.30;90.10
30572;DHT22;17348;50.948;10.696;2022-09-01T17:23:59;21.20;90.10
30572;DHT22;17348;50.948;10.696;2022-09-01T17:27:07;21.20;90.30
30572;DHT22;17348;50.948;10.696;2022-09-01T17:30:14;21.10;90.40
30572;DHT22;17348;50.948;10.696;2022-09-01T17:33:22;21.00;90.60
30572;DHT22;17348;50.948;10.696;2022-09-01T17:36:36;21.00;90.80
30572;DHT22;17348;50.948;10.696;2022-09-01T17:39:47;20.80;91.00
30572;DHT22;17348;50.948;10.696;2022-09-01T17:42:55;20.70;91.20
30572;DHT22;17348;50.948;10.696;2022-09-01T17:46:04;20.60;91.50
30572;DHT22;17348;50.948;10.696;2022-09-01T17:49:17;20.50;91.70
30572;DHT22;17348;50.948;10.696;2022-09-01T17:52:30;20.40;91.90
30572;DHT22;17348;50.948;10.696;2022-09-01T17:55:41;20.30;92.00
30572;DHT22;17348;50.948;10.696;2022-09-01T17:58:52;20.20;92.20
30572;DHT22;17348;50.948;10.696;2022-09-01T18:02:09;20.10;92.70
30572;DHT22;17348;50.948;10.696;2022-09-01T18:05:15;20.00;92.50
30572;DHT22;17348;50.948;10.696;2022-09-01T18:08:28;19.90;92.70
30572;DHT22;17348;50.948;10.696;2022-09-01T18:11:38;19.80;92.90
30572;DHT22;17348;50.948;10.696;2022-09-01T18:14:51;19.70;93.00
30572;DHT22;17348;50.948;10.696;2022-09-01T18:17:59;19.60;93.10
30572;DHT22;17348;50.948;10.696;2022-09-01T18:21:09;19.60;93.20
30572;DHT22;17348;50.948;10.696;2022-09-01T18:24:15;19.40;93.40
30572;DHT22;17348;50.948;10.696;2022-09-01T18:27:17;19.40;93.40
30572;DHT22;17348;50.948;10.696;2022-09-01T18:30:20;19.30;93.60
30572;DHT22;17348;50.948;10.696;2022-09-01T18:33:25;19.10;93.70
30572;DHT22;17348;50.948;10.696;2022-09-01T18:36:40;19.10;93.70
30572;DHT22;17348;50.948;10.696;2022-09-01T18:39:53;19.00;94.00
30572;DHT22;17348;50.948;10.696;2022-09-01T18:43:02;18.90;93.90
30572;DHT22;17348;50.948;10.696;2022-09-01T18:46:15;18.80;94.10
30572;DHT22;17348;50.948;10.696;2022-09-01T18:49:29;18.70;94.00
30572;DHT22;17348;50.948;10.696;2022-09-01T18:52:50;18.60;94.10
30572;DHT22;17348;50.948;10.696;2022-09-01T18:55:58;18.50;94.00
30572;DHT22;17348;50.948;10.696;2022-09-01T18:59:07;18.40;94.20
30572;DHT22;17348;50.948;10.696;2022-09-01T19:02:25;18.40;94.70
30572;DHT22;17348;50.948;10.696;2022-09-01T19:05:43;18.30;94.60
30572;DHT22;17348;50.948;10.696;2022-09-01T19:08:56;18.20;94.60
30572;DHT22;17348;50.948;10.696;2022-09-01T19:12:15;18.00;94.50
30572;DHT22;17348;50.948;10.696;2022-09-01T19:15:26;18.00;94.80
30572;DHT22;17348;50.948;10.696;2022-09-01T19:18:35;17.90;94.90
30572;DHT22;17348;50.948;10.696;2022-09-01T19:21:39;17.80;95.30